createdAt,value
2023-03-31T00:00:13.422Z,1.05
2023-03-31T00:01:16.106Z,1.10
2023-03-31T00:02:22.224Z,1.20
2023-03-31T00:03:24.558Z,1.40
2023-03-31T00:04:30.759Z,1.17
2023-03-31T00:05:36.604Z,1.30
2023-03-31T00:06:45.118Z,0.93
2023-03-31T00:07:51.510Z,1.20
2023-03-31T00:08:57.632Z,1.27
2023-03-31T00:10:16.654Z,1.20
2023-03-31T00:11:22.230Z,1.38
2023-03-31T00:12:24.015Z,1.70
2023-03-31T00:13:29.505Z,1.30
2023-03-31T00:14:34.044Z,1.17
2023-03-31T00:15:38.406Z,1.30
2023-03-31T00:16:41.493Z,1.30
2023-03-31T00:17:47.201Z,1.08
2023-03-31T00:18:51.368Z,1.20
2023-03-31T00:19:54.154Z,1.15
2023-03-31T00:21:01.941Z,1.20
2023-03-31T00:22:06.153Z,1.15
2023-03-31T00:23:11.483Z,1.27
2023-03-31T00:24:14.788Z,1.25
2023-03-31T00:25:18.029Z,1.13
2023-03-31T00:26:20.206Z,1.02
2023-03-31T00:27:22.176Z,1.20
2023-03-31T00:28:28.429Z,1.20
2023-03-31T00:29:31.755Z,1.20
2023-03-31T00:30:37.185Z,1.05
2023-03-31T00:31:39.241Z,1.17
2023-03-31T00:32:42.860Z,1.00
2023-03-31T00:33:45.081Z,1.20
2023-03-31T00:34:46.855Z,1.33
2023-03-31T00:35:54.808Z,1.35
2023-03-31T00:37:03.236Z,4.47
2023-03-31T00:38:08.733Z,1.10
2023-03-31T00:39:10.457Z,1.27
2023-03-31T00:40:13.537Z,1.23
2023-03-31T00:41:16.459Z,1.20
2023-03-31T00:42:19.060Z,1.30
2023-03-31T00:43:36.769Z,1.48
2023-03-31T00:45:01.053Z,1.10
2023-03-31T00:46:21.810Z,1.27
2023-03-31T00:47:27.030Z,1.08
2023-03-31T00:48:32.968Z,1.30
2023-03-31T00:49:40.665Z,1.13
2023-03-31T00:50:56.305Z,1.30
2023-03-31T00:52:02.814Z,1.50
2023-03-31T00:53:11.116Z,1.20
2023-03-31T00:54:13.186Z,1.40
2023-03-31T00:55:20.164Z,1.35
2023-03-31T00:56:22.892Z,1.17
2023-03-31T00:57:29.625Z,1.30
2023-03-31T00:58:36.129Z,1.23
2023-03-31T00:59:42.646Z,1.20
2023-03-31T01:00:45.246Z,1.30
2023-03-31T01:01:51.199Z,1.13
2023-03-31T01:02:56.774Z,1.20
2023-03-31T01:03:59.964Z,1.45
2023-03-31T01:05:02.612Z,1.13
2023-03-31T01:06:13.193Z,1.02
2023-03-31T01:07:20.975Z,1.17
2023-03-31T01:08:28.467Z,1.30
2023-03-31T01:09:37.960Z,1.20
2023-03-31T01:10:43.244Z,1.08
2023-03-31T01:11:46.674Z,1.13
2023-03-31T01:12:51.398Z,1.10
2023-03-31T01:13:57.828Z,1.38
2023-03-31T01:15:00.185Z,1.20
2023-03-31T01:16:01.989Z,1.00
2023-03-31T01:17:05.624Z,1.35
2023-03-31T01:18:13.255Z,1.55
2023-03-31T01:19:22.734Z,1.15
2023-03-31T01:20:39.603Z,1.10
2023-03-31T01:22:00.919Z,1.25
2023-03-31T01:23:22.505Z,1.63
2023-03-31T01:24:38.933Z,1.35
2023-03-31T01:26:01.047Z,1.23
2023-03-31T01:27:22.437Z,1.23
2023-03-31T01:28:27.723Z,1.20
2023-03-31T01:29:42.265Z,1.20
2023-03-31T01:31:04.016Z,1.20
2023-03-31T01:32:15.016Z,1.30
2023-03-31T01:33:39.355Z,1.13
2023-03-31T01:35:02.436Z,1.20
2023-03-31T01:36:05.464Z,1.27
2023-03-31T01:37:28.186Z,1.60
2023-03-31T01:38:42.540Z,1.35
2023-03-31T01:39:57.148Z,1.50
2023-03-31T01:41:18.588Z,1.15
2023-03-31T01:42:36.928Z,1.30
2023-03-31T01:43:41.694Z,1.35
2023-03-31T01:45:02.208Z,1.27
2023-03-31T01:46:08.166Z,1.33
2023-03-31T01:47:17.503Z,1.10
2023-03-31T01:48:23.735Z,1.40
2023-03-31T01:49:45.876Z,1.20
2023-03-31T01:50:50.166Z,0.80
2023-03-31T01:52:05.303Z,0.80
2023-03-31T01:53:06.983Z,1.05
2023-03-31T01:54:25.568Z,1.20
2023-03-31T01:55:42.893Z,0.80
2023-03-31T01:57:09.336Z,0.70
2023-03-31T01:58:32.698Z,1.10
2023-03-31T01:59:48.547Z,1.10
2023-03-31T02:01:00.844Z,1.27
2023-03-31T02:02:06.717Z,1.30
2023-03-31T02:03:08.463Z,0.90
2023-03-31T02:04:22.291Z,0.90
2023-03-31T02:05:27.174Z,1.10
2023-03-31T02:06:32.145Z,1.40
2023-03-31T02:07:40.623Z,1.40
2023-03-31T02:08:45.921Z,0.83
2023-03-31T02:09:51.147Z,1.10
2023-03-31T02:10:54.176Z,1.02
2023-03-31T02:11:59.968Z,1.25
2023-03-31T02:13:02.968Z,1.30
2023-03-31T02:14:11.267Z,0.93
2023-03-31T02:15:16.282Z,0.80
2023-03-31T02:16:22.322Z,1.00
2023-03-31T02:17:30.871Z,0.75
2023-03-31T02:18:33.372Z,1.08
2023-03-31T02:19:40.289Z,1.00
2023-03-31T02:20:46.437Z,1.27
2023-03-31T02:21:57.253Z,1.08
2023-03-31T02:23:00.233Z,1.08
2023-03-31T02:24:04.656Z,1.08
2023-03-31T02:25:10.652Z,1.05
2023-03-31T02:26:16.587Z,1.38
2023-03-31T02:27:37.690Z,1.17
2023-03-31T02:28:41.889Z,1.25
2023-03-31T02:29:43.984Z,1.00
2023-03-31T02:30:49.525Z,1.10
2023-03-31T02:32:04.027Z,1.00
2023-03-31T02:33:07.938Z,1.10
2023-03-31T02:34:11.176Z,1.20
2023-03-31T02:35:17.866Z,1.27
2023-03-31T02:36:24.208Z,0.70
2023-03-31T02:37:26.806Z,0.80
2023-03-31T02:38:31.858Z,0.93
2023-03-31T02:39:37.885Z,0.93
2023-03-31T02:40:40.471Z,0.90
2023-03-31T02:41:45.670Z,0.77
2023-03-31T02:42:50.988Z,0.95
2023-03-31T02:43:57.709Z,1.10
2023-03-31T02:45:07.099Z,0.80
2023-03-31T02:46:11.041Z,0.80
2023-03-31T02:47:14.632Z,0.90
2023-03-31T02:48:34.637Z,0.90
2023-03-31T02:49:38.315Z,1.25
2023-03-31T02:51:01.982Z,1.00
2023-03-31T02:52:25.387Z,0.90
2023-03-31T02:53:48.664Z,0.75
2023-03-31T02:55:12.068Z,0.80
2023-03-31T02:56:36.202Z,1.00
2023-03-31T02:57:45.006Z,0.98
2023-03-31T02:59:10.906Z,0.95
2023-03-31T03:00:16.796Z,1.13
2023-03-31T03:01:36.426Z,1.10
2023-03-31T03:02:56.821Z,1.20
2023-03-31T03:04:05.837Z,1.13
2023-03-31T03:05:20.522Z,1.05
2023-03-31T03:06:40.785Z,0.80
2023-03-31T03:08:03.958Z,1.10
2023-03-31T03:09:24.105Z,1.05
2023-03-31T03:10:43.220Z,1.10
2023-03-31T03:12:03.365Z,0.90
2023-03-31T03:13:28.883Z,1.02
2023-03-31T03:14:36.338Z,1.15
2023-03-31T03:15:42.291Z,0.90
2023-03-31T03:16:47.276Z,1.23
2023-03-31T03:17:53.360Z,0.90
2023-03-31T03:18:59.230Z,1.17
2023-03-31T03:20:04.537Z,1.35
2023-03-31T03:21:07.510Z,1.52
2023-03-31T03:22:10.245Z,1.00
2023-03-31T03:23:12.069Z,1.08
2023-03-31T03:24:20.919Z,1.20
2023-03-31T03:25:24.502Z,1.30
2023-03-31T03:26:30.917Z,1.02
2023-03-31T03:27:36.016Z,1.17
2023-03-31T03:28:41.968Z,1.30
2023-03-31T03:29:44.655Z,1.05
2023-03-31T03:30:47.757Z,1.35
2023-03-31T03:31:52.341Z,1.03
2023-03-31T03:32:56.558Z,1.20
2023-03-31T03:33:58.117Z,1.30
2023-03-31T03:35:00.954Z,1.35
2023-03-31T03:36:04.039Z,1.30
2023-03-31T03:37:06.157Z,1.65
2023-03-31T03:38:11.430Z,1.67
2023-03-31T03:39:15.325Z,1.60
2023-03-31T03:40:19.246Z,1.80
2023-03-31T03:41:21.105Z,2.40
2023-03-31T03:42:23.177Z,1.58
2023-03-31T03:43:28.341Z,1.50
2023-03-31T03:44:30.529Z,1.73
2023-03-31T03:45:33.225Z,1.40
2023-03-31T03:46:37.387Z,1.50
2023-03-31T03:47:40.005Z,1.35
2023-03-31T03:48:41.652Z,1.65
2023-03-31T03:49:43.234Z,1.60
2023-03-31T03:50:47.271Z,1.65
2023-03-31T03:51:49.682Z,1.23
2023-03-31T03:52:52.136Z,1.30
2023-03-31T03:53:58.063Z,1.52
2023-03-31T03:55:02.020Z,1.63
2023-03-31T03:56:05.755Z,1.60
2023-03-31T03:57:08.229Z,1.20
2023-03-31T03:58:10.169Z,1.58
2023-03-31T03:59:12.367Z,1.60
2023-03-31T04:00:14.318Z,1.85
2023-03-31T04:01:16.499Z,1.92
2023-03-31T04:02:19.366Z,1.73
2023-03-31T04:03:21.118Z,1.60
2023-03-31T04:04:24.286Z,2.17
2023-03-31T04:05:28.382Z,2.00
2023-03-31T04:06:31.327Z,1.90
2023-03-31T04:07:33.089Z,3.15
2023-03-31T04:08:37.352Z,2.30
2023-03-31T04:09:41.673Z,1.85
2023-03-31T04:10:45.405Z,1.33
2023-03-31T04:11:47.106Z,1.30
2023-03-31T04:12:52.381Z,1.77
2023-03-31T04:13:54.168Z,1.60
2023-03-31T04:14:58.062Z,1.30
2023-03-31T04:16:00.148Z,1.10
2023-03-31T04:17:06.101Z,1.20
2023-03-31T04:18:15.030Z,1.13
2023-03-31T04:19:20.482Z,0.95
2023-03-31T04:20:24.636Z,1.40
2023-03-31T04:21:27.205Z,1.13
2023-03-31T04:22:29.548Z,1.25
2023-03-31T04:23:34.903Z,1.13
2023-03-31T04:24:38.954Z,1.15
2023-03-31T04:25:46.526Z,1.30
2023-03-31T04:26:51.274Z,1.13
2023-03-31T04:27:58.063Z,0.90
2023-03-31T04:29:03.911Z,1.20
2023-03-31T04:30:06.681Z,1.10
2023-03-31T04:31:12.191Z,1.00
2023-03-31T04:32:17.573Z,1.40
2023-03-31T04:33:22.499Z,1.10
2023-03-31T04:34:27.323Z,1.20
2023-03-31T04:35:48.975Z,1.35
2023-03-31T04:36:54.329Z,1.35
2023-03-31T04:38:02.172Z,1.20
2023-03-31T04:39:07.165Z,1.00
2023-03-31T04:40:11.187Z,1.20
2023-03-31T04:41:13.757Z,1.00
2023-03-31T04:42:16.383Z,1.00
2023-03-31T04:43:21.410Z,1.10
2023-03-31T04:44:24.445Z,1.00
2023-03-31T04:45:27.430Z,0.90
2023-03-31T04:46:29.125Z,0.90
2023-03-31T04:47:34.242Z,0.95
2023-03-31T04:48:37.387Z,0.90
2023-03-31T04:49:41.640Z,1.05
2023-03-31T04:50:44.096Z,1.00
2023-03-31T04:51:46.434Z,1.10
2023-03-31T04:52:51.483Z,1.10
2023-03-31T04:53:53.237Z,1.40
2023-03-31T04:54:59.718Z,1.27
2023-03-31T04:56:05.263Z,1.30
2023-03-31T04:57:07.136Z,1.05
2023-03-31T04:58:11.406Z,1.38
2023-03-31T04:59:15.703Z,1.17
2023-03-31T05:00:20.929Z,1.65
2023-03-31T05:01:23.825Z,5.32
2023-03-31T05:02:28.586Z,1.48
2023-03-31T05:03:30.480Z,1.55
2023-03-31T05:04:33.164Z,1.90
2023-03-31T05:05:36.376Z,1.80
2023-03-31T05:06:37.923Z,1.48
2023-03-31T05:07:41.242Z,1.70
2023-03-31T05:08:43.302Z,1.67
2023-03-31T05:09:45.400Z,1.67
2023-03-31T05:10:47.028Z,1.90
2023-03-31T05:11:50.068Z,1.77
2023-03-31T05:12:54.302Z,1.98
2023-03-31T05:13:57.140Z,4.20
2023-03-31T05:14:59.151Z,3.65
2023-03-31T05:16:15.018Z,1.85
2023-03-31T05:17:20.705Z,1.60
2023-03-31T05:18:25.460Z,1.40
2023-03-31T05:19:27.188Z,1.90
2023-03-31T05:20:31.505Z,1.30
2023-03-31T05:21:33.195Z,1.13
2023-03-31T05:22:38.209Z,1.27
2023-03-31T05:23:40.307Z,1.38
2023-03-31T05:24:44.382Z,1.30
2023-03-31T05:25:47.454Z,1.60
2023-03-31T05:26:55.415Z,2.00
2023-03-31T05:27:57.325Z,1.83
2023-03-31T05:28:59.074Z,1.80
2023-03-31T05:30:01.362Z,1.33
2023-03-31T05:31:03.848Z,2.00
2023-03-31T05:32:06.395Z,2.05
2023-03-31T05:33:11.789Z,1.77
2023-03-31T05:34:17.127Z,1.77
2023-03-31T05:35:20.420Z,1.85
2023-03-31T05:36:26.308Z,2.03
2023-03-31T05:37:29.260Z,1.83
2023-03-31T05:38:31.861Z,2.13
2023-03-31T05:39:34.085Z,2.00
2023-03-31T05:40:38.374Z,2.13
2023-03-31T05:41:41.677Z,2.60
2023-03-31T05:42:46.614Z,3.47
2023-03-31T05:43:50.119Z,2.70
2023-03-31T05:44:53.207Z,1.80
2023-03-31T05:45:57.084Z,2.50
2023-03-31T05:47:02.404Z,2.05
2023-03-31T05:48:04.492Z,1.60
2023-03-31T05:49:07.257Z,1.70
2023-03-31T05:50:10.285Z,1.67
2023-03-31T05:51:12.959Z,1.60
2023-03-31T05:52:15.409Z,1.80
2023-03-31T05:58:35.811Z,1.38
2023-03-31T05:59:38.553Z,1.75
2023-03-31T06:01:46.018Z,1.80
2023-03-31T06:02:51.290Z,2.00
2023-03-31T06:03:54.488Z,1.50
2023-03-31T06:04:58.014Z,1.40
2023-03-31T06:06:02.366Z,1.25
2023-03-31T06:07:05.640Z,1.10
2023-03-31T06:08:08.167Z,0.93
2023-03-31T06:09:12.917Z,1.45
2023-03-31T06:10:16.282Z,1.65
2023-03-31T06:11:23.370Z,1.60
2023-03-31T06:12:25.046Z,2.15
2023-03-31T06:13:27.843Z,2.13
2023-03-31T06:14:32.570Z,3.00
2023-03-31T06:15:42.273Z,2.20
2023-03-31T06:16:45.151Z,3.35
2023-03-31T06:17:48.188Z,3.28
2023-03-31T06:18:53.640Z,3.15
2023-03-31T06:19:58.939Z,2.60
2023-03-31T06:21:01.190Z,2.40
2023-03-31T06:22:03.008Z,2.50
2023-03-31T06:23:05.122Z,3.30
2023-03-31T11:32:17.025Z,0.50
2023-03-31T11:33:41.061Z,0.57
2023-03-31T11:34:50.035Z,1.00
2023-03-31T11:36:02.793Z,1.00
2023-03-31T11:37:23.864Z,0.50
2023-03-31T11:38:47.591Z,0.50
2023-03-31T11:39:49.940Z,1.48
2023-03-31T11:41:05.249Z,0.90
2023-03-31T11:42:16.245Z,1.33
2023-03-31T11:43:39.053Z,0.57
2023-03-31T11:44:46.034Z,0.70
2023-03-31T11:45:53.924Z,0.30
2023-03-31T11:47:04.446Z,0.30
2023-03-31T11:48:34.014Z,0.30
2023-03-31T11:49:48.781Z,0.30
2023-03-31T11:50:54.093Z,0.70
2023-03-31T11:52:15.043Z,0.40
2023-03-31T11:53:18.014Z,0.32
2023-03-31T11:54:38.567Z,0.38
2023-03-31T11:55:42.509Z,0.52
2023-03-31T11:56:47.933Z,0.50
2023-03-31T11:58:12.092Z,0.57
2023-03-31T11:59:22.851Z,0.40
2023-03-31T12:00:47.541Z,0.40
2023-03-31T12:01:56.773Z,0.50
2023-03-31T12:03:17.770Z,0.60
2023-03-31T12:04:33.695Z,0.68
2023-03-31T12:05:38.399Z,0.80
2023-03-31T12:06:49.268Z,0.95
2023-03-31T12:08:09.987Z,0.77
2023-03-31T12:09:33.131Z,2.22
2023-03-31T12:10:41.936Z,1.40
2023-03-31T12:11:56.656Z,1.00
2023-03-31T12:13:05.182Z,1.17
2023-03-31T12:14:28.119Z,0.93
2023-03-31T12:15:32.173Z,1.30
2023-03-31T12:16:48.674Z,1.10
2023-03-31T12:18:23.412Z,1.47
2023-03-31T12:19:49.669Z,1.80
2023-03-31T12:20:56.523Z,1.80
2023-03-31T12:22:12.886Z,1.83
2023-03-31T12:23:20.602Z,1.60
2023-03-31T12:24:23.223Z,1.20
2023-03-31T12:25:29.859Z,1.23
2023-03-31T12:26:53.395Z,1.98
2023-03-31T12:28:06.595Z,2.35
2023-03-31T12:29:31.060Z,2.83
2023-03-31T12:30:38.483Z,1.80
2023-03-31T12:31:44.410Z,1.03
2023-03-31T12:32:51.938Z,1.67
2023-03-31T12:34:05.078Z,1.20
2023-03-31T12:35:28.329Z,0.98
2023-03-31T12:36:38.618Z,0.80
2023-03-31T12:38:03.850Z,0.88
2023-03-31T12:39:24.897Z,4.25
2023-03-31T12:40:35.324Z,0.80
2023-03-31T12:41:57.705Z,0.70
2023-03-31T12:43:21.123Z,0.85
2023-03-31T12:44:41.779Z,0.75
2023-03-31T12:46:02.787Z,4.25
2023-03-31T12:47:15.582Z,1.00
2023-03-31T12:48:36.741Z,0.43
2023-03-31T12:49:41.397Z,0.40
2023-03-31T12:50:58.188Z,0.55
2023-03-31T12:52:20.670Z,0.65
2023-03-31T12:53:50.314Z,0.40
2023-03-31T12:55:07.708Z,0.60
2023-03-31T12:56:10.284Z,0.50
2023-03-31T12:57:18.577Z,0.90
2023-03-31T12:58:33.069Z,0.50
2023-03-31T12:59:46.503Z,0.40
2023-03-31T13:01:05.879Z,0.50
2023-03-31T13:02:16.430Z,0.57
2023-03-31T13:03:40.100Z,0.40
2023-03-31T13:04:44.163Z,0.40
2023-03-31T13:05:47.642Z,0.45
2023-03-31T13:06:54.757Z,0.40
2023-03-31T13:07:59.476Z,0.60
2023-03-31T13:09:20.331Z,0.50
2023-03-31T13:10:28.944Z,0.50
2023-03-31T13:11:33.720Z,0.40
2023-03-31T13:12:38.456Z,0.43
2023-03-31T13:14:07.928Z,0.45
2023-03-31T13:15:14.794Z,0.40
2023-03-31T13:16:23.220Z,0.40
2023-03-31T13:17:30.937Z,0.50
2023-03-31T13:18:34.283Z,0.57
2023-03-31T13:19:39.061Z,0.52
2023-03-31T13:20:42.251Z,0.70
2023-03-31T13:21:57.729Z,0.50
2023-03-31T13:23:11.638Z,0.50
2023-03-31T13:24:18.457Z,0.80
2023-03-31T13:25:33.191Z,0.40
2023-03-31T13:26:39.526Z,0.40
2023-03-31T13:27:51.910Z,0.30
2023-03-31T13:29:12.449Z,0.40
2023-03-31T13:30:34.003Z,0.40
2023-03-31T13:31:57.530Z,0.77
2023-03-31T13:33:12.772Z,0.50
2023-03-31T13:34:18.245Z,0.40
2023-03-31T13:35:28.051Z,0.40
2023-03-31T13:36:38.390Z,0.55
2023-03-31T13:37:45.834Z,0.40
2023-03-31T13:39:07.105Z,0.47
2023-03-31T13:40:17.941Z,0.50
2023-03-31T13:41:39.225Z,0.30
2023-03-31T13:43:02.031Z,0.30
2023-03-31T13:44:06.399Z,0.45
2023-03-31T13:45:30.101Z,1.50
2023-03-31T13:46:44.654Z,0.40
2023-03-31T13:47:59.054Z,0.30
2023-03-31T13:49:10.980Z,0.15
2023-03-31T15:19:38.774Z,1.00
2023-03-31T15:20:44.642Z,0.90
2023-03-31T15:21:55.130Z,0.88
2023-03-31T15:23:03.679Z,0.93
2023-03-31T15:24:10.938Z,0.90
2023-03-31T15:25:22.551Z,1.20
2023-03-31T15:26:41.339Z,0.50
2023-03-31T15:27:54.010Z,0.52
2023-03-31T15:29:05.617Z,0.70
2023-03-31T15:30:09.648Z,0.35
2023-03-31T15:31:25.129Z,0.55
2023-03-31T15:32:50.839Z,0.40
2023-03-31T15:33:55.172Z,0.50
2023-03-31T15:35:14.809Z,0.40
2023-03-31T15:36:26.111Z,0.50
2023-03-31T15:37:34.690Z,0.30
2023-03-31T15:38:37.044Z,0.32
2023-03-31T15:39:41.239Z,0.30
2023-03-31T15:40:49.792Z,0.35
2023-03-31T15:41:53.543Z,0.30
2023-03-31T15:43:13.689Z,0.30
2023-03-31T15:44:31.268Z,0.20
2023-03-31T15:45:40.166Z,0.25
2023-03-31T15:46:41.719Z,0.40
2023-03-31T15:47:57.365Z,0.40
2023-03-31T15:49:12.044Z,0.20
2023-03-31T15:50:17.899Z,2.20
2023-03-31T15:51:35.143Z,0.50
2023-03-31T15:52:57.533Z,0.40
2023-03-31T15:54:03.067Z,0.43
2023-03-31T15:55:40.749Z,0.70
2023-03-31T15:56:49.112Z,0.40
2023-03-31T15:57:51.374Z,0.52
2023-03-31T15:59:14.384Z,0.40
2023-03-31T16:00:41.952Z,0.40
2023-03-31T16:01:49.906Z,0.50
2023-03-31T16:02:54.963Z,1.00
2023-03-31T16:03:58.309Z,0.70
2023-03-31T16:06:45.917Z,0.55
2023-03-31T16:07:48.822Z,0.40
2023-03-31T16:09:01.977Z,0.35
2023-03-31T16:10:27.967Z,0.30
2023-03-31T16:11:50.007Z,0.40
2023-03-31T16:13:01.034Z,0.57
2023-03-31T16:14:10.453Z,0.65
2023-03-31T16:15:31.984Z,1.08
2023-03-31T16:16:36.947Z,0.43
2023-03-31T16:18:01.542Z,0.40
2023-03-31T16:19:12.665Z,0.50
2023-03-31T16:20:24.623Z,0.30
2023-03-31T16:21:30.509Z,0.43
2023-03-31T16:22:40.139Z,0.50
2023-03-31T16:23:47.446Z,0.40
2023-03-31T16:24:52.892Z,0.65
2023-03-31T16:25:57.554Z,1.77
2023-03-31T16:27:17.709Z,0.60
2023-03-31T16:28:28.185Z,0.40
2023-03-31T16:29:30.242Z,0.43
2023-03-31T16:30:38.347Z,0.50
2023-03-31T16:31:40.923Z,0.65
2023-03-31T16:33:09.197Z,0.65
2023-03-31T16:34:15.089Z,0.40
2023-03-31T16:35:20.070Z,0.50
2023-03-31T16:36:23.974Z,0.68
2023-03-31T16:37:30.252Z,0.52
2023-03-31T16:38:35.503Z,0.50
2023-03-31T16:39:39.429Z,0.38
2023-03-31T16:40:42.500Z,0.60
2023-03-31T16:41:48.706Z,0.70
2023-03-31T16:43:07.396Z,0.40
2023-03-31T16:44:13.666Z,0.30
2023-03-31T16:45:17.041Z,0.60
2023-03-31T16:46:21.447Z,0.77
2023-03-31T16:47:35.060Z,0.90
2023-03-31T16:48:40.408Z,0.63
2023-03-31T16:49:42.265Z,0.50
2023-03-31T16:50:45.949Z,0.50
2023-03-31T16:51:51.268Z,0.57
2023-03-31T16:52:55.130Z,0.68
2023-03-31T16:54:02.177Z,0.82
2023-03-31T16:55:07.784Z,0.55
2023-03-31T16:56:10.001Z,0.52
2023-03-31T16:57:13.503Z,0.70
2023-03-31T16:58:20.181Z,0.68
2023-03-31T16:59:26.957Z,0.50
2023-03-31T17:00:34.074Z,0.50
2023-03-31T17:01:38.147Z,0.60
2023-03-31T17:02:44.974Z,0.80
2023-03-31T17:03:54.034Z,0.55
2023-03-31T17:05:06.165Z,0.57
2023-03-31T17:06:16.589Z,0.30
2023-03-31T17:07:20.620Z,0.50
2023-03-31T17:08:28.041Z,0.45
2023-03-31T17:09:33.623Z,0.70
2023-03-31T17:10:39.313Z,0.70
2023-03-31T17:11:45.475Z,0.60
2023-03-31T17:12:50.255Z,0.70
2023-03-31T17:13:56.132Z,0.68
2023-03-31T17:14:58.127Z,0.85
2023-03-31T17:16:16.240Z,0.80
2023-03-31T17:17:22.105Z,0.70
2023-03-31T17:18:28.334Z,0.60
2023-03-31T17:19:33.154Z,0.88
2023-03-31T17:20:35.383Z,2.90
2023-03-31T17:21:40.371Z,0.68
2023-03-31T17:22:45.432Z,0.93
2023-03-31T17:23:51.079Z,0.80
2023-03-31T17:24:58.130Z,0.93
2023-03-31T17:26:03.841Z,0.90
2023-03-31T17:27:08.849Z,0.88
2023-03-31T17:28:14.593Z,4.82
2023-03-31T17:29:19.549Z,0.80
2023-03-31T17:30:24.450Z,1.13
2023-03-31T17:31:28.891Z,1.55
2023-03-31T17:32:34.708Z,1.20
2023-03-31T17:33:37.135Z,0.57
2023-03-31T17:34:40.982Z,0.70
2023-03-31T17:35:44.973Z,0.50
2023-03-31T17:36:53.574Z,0.68
2023-03-31T17:37:58.830Z,0.70
2023-03-31T17:39:05.470Z,0.52
2023-03-31T17:40:09.741Z,0.45
2023-03-31T17:41:13.438Z,0.70
2023-03-31T17:42:19.222Z,0.60
2023-03-31T17:43:25.658Z,1.92
2023-03-31T17:44:30.627Z,0.85
2023-03-31T17:45:36.352Z,0.60
2023-03-31T17:46:42.969Z,0.70
2023-03-31T17:47:50.718Z,0.80
2023-03-31T17:48:54.323Z,1.40
2023-03-31T17:50:00.182Z,0.55
2023-03-31T17:51:25.024Z,1.27
2023-03-31T17:52:30.510Z,0.60
2023-03-31T17:53:35.712Z,0.70
2023-03-31T17:54:39.253Z,0.50
2023-03-31T17:55:46.109Z,0.90
2023-03-31T17:56:51.222Z,0.80
2023-03-31T17:57:56.753Z,0.63
2023-03-31T17:59:01.361Z,0.70
2023-03-31T18:00:06.854Z,1.00
2023-03-31T18:01:12.205Z,0.75
2023-03-31T18:02:15.854Z,0.68
2023-03-31T18:03:21.306Z,0.88
2023-03-31T18:04:25.928Z,0.55
2023-03-31T18:05:36.958Z,0.82
2023-03-31T18:06:43.406Z,1.00
2023-03-31T18:07:45.063Z,0.70
2023-03-31T18:08:46.616Z,0.70
2023-03-31T18:09:50.556Z,1.00
2023-03-31T18:10:55.436Z,0.60
2023-03-31T18:12:01.737Z,0.73
2023-03-31T18:13:07.697Z,0.95
2023-03-31T18:14:16.141Z,0.98
2023-03-31T18:15:21.232Z,0.80
2023-03-31T18:16:25.131Z,0.95
2023-03-31T18:17:31.555Z,1.02
2023-03-31T18:18:37.152Z,0.93
2023-03-31T18:19:44.176Z,0.60
2023-03-31T18:20:48.578Z,0.98
2023-03-31T18:21:54.100Z,0.80
2023-03-31T18:23:01.062Z,1.00
2023-03-31T18:24:04.436Z,0.70
2023-03-31T18:25:08.000Z,0.45
2023-03-31T18:26:11.916Z,0.70
2023-03-31T18:27:14.086Z,0.80
2023-03-31T18:28:21.468Z,2.30
2023-03-31T18:29:26.973Z,2.55
2023-03-31T18:30:31.816Z,1.25
2023-03-31T18:31:33.636Z,0.47
2023-03-31T18:32:39.256Z,0.90
2023-03-31T18:33:42.627Z,0.80
2023-03-31T18:34:47.761Z,0.80
2023-03-31T18:35:53.632Z,0.60
2023-03-31T18:36:57.465Z,0.60
2023-03-31T18:38:00.543Z,0.50
2023-03-31T18:39:04.744Z,0.52
2023-03-31T18:40:11.389Z,0.50
2023-03-31T18:41:13.501Z,0.50
2023-03-31T18:42:15.121Z,0.50
2023-03-31T18:43:20.898Z,0.70
2023-03-31T18:44:24.996Z,0.70
2023-03-31T18:45:31.031Z,0.40
2023-03-31T18:46:35.434Z,0.50
2023-03-31T18:47:38.733Z,0.65
2023-03-31T18:48:44.790Z,0.80
2023-03-31T18:49:48.776Z,0.70
2023-03-31T18:50:56.674Z,0.52
2023-03-31T18:52:05.110Z,0.82
2023-03-31T18:53:08.349Z,0.80
2023-03-31T18:54:10.185Z,0.55
2023-03-31T18:55:15.279Z,0.85
2023-03-31T18:56:19.398Z,0.50
2023-03-31T18:57:22.271Z,0.77
2023-03-31T18:58:25.008Z,0.63
2023-03-31T18:59:28.751Z,0.50
2023-03-31T19:01:50.021Z,0.77
2023-03-31T19:02:54.577Z,1.10
2023-03-31T19:03:57.568Z,0.90
2023-03-31T19:05:02.762Z,1.00
2023-03-31T19:06:11.380Z,0.77
2023-03-31T19:07:14.139Z,0.70
2023-03-31T19:08:20.098Z,1.30
2023-03-31T19:09:34.143Z,0.50
2023-03-31T19:10:39.049Z,0.50
2023-03-31T19:11:42.006Z,0.60
2023-03-31T19:12:52.028Z,0.55
2023-03-31T19:14:00.849Z,0.60
2023-03-31T19:15:08.868Z,0.77
2023-03-31T19:16:12.313Z,0.57
2023-03-31T19:17:19.108Z,0.43
2023-03-31T19:18:22.249Z,0.63
2023-03-31T19:19:28.233Z,0.70
2023-03-31T19:20:30.140Z,0.60
2023-03-31T19:21:33.772Z,0.70
2023-03-31T19:22:37.068Z,0.52
2023-03-31T19:23:42.604Z,0.80
2023-03-31T19:24:52.697Z,0.60
2023-03-31T19:25:55.999Z,0.68
2023-03-31T19:27:01.348Z,0.70
2023-03-31T19:28:07.264Z,0.70
2023-03-31T19:29:12.243Z,0.90
2023-03-31T19:30:20.014Z,0.82
2023-03-31T19:31:24.456Z,0.50
2023-03-31T19:32:28.539Z,0.50
2023-03-31T19:33:30.209Z,0.60
2023-03-31T19:34:36.202Z,0.40
2023-03-31T19:35:56.253Z,0.90
2023-03-31T19:37:02.350Z,0.60
2023-03-31T19:38:06.417Z,0.85
2023-03-31T19:39:11.763Z,0.50
2023-03-31T19:40:15.838Z,0.60
2023-03-31T19:41:21.092Z,0.50
2023-03-31T19:42:23.260Z,0.75
2023-03-31T19:43:31.076Z,1.60
2023-03-31T19:44:33.274Z,2.38
2023-03-31T19:45:38.184Z,4.47
2023-03-31T19:46:42.410Z,2.50
2023-03-31T19:47:48.262Z,2.45
2023-03-31T19:48:53.243Z,1.05
2023-03-31T19:49:59.185Z,0.30
2023-03-31T19:51:08.613Z,0.80
2023-03-31T19:52:13.405Z,1.65
2023-03-31T19:53:17.935Z,0.90
2023-03-31T19:54:20.814Z,0.47
2023-03-31T19:55:23.815Z,0.70
2023-03-31T19:56:27.642Z,0.50
2023-03-31T19:57:33.465Z,0.43
2023-03-31T19:58:39.039Z,0.35
2023-03-31T19:59:45.106Z,0.50
2023-03-31T20:00:56.132Z,0.40
2023-03-31T20:02:10.323Z,0.60
2023-03-31T20:03:14.747Z,1.10
2023-03-31T20:04:18.626Z,1.13
2023-03-31T20:05:21.868Z,1.20
2023-03-31T20:06:28.477Z,1.52
2023-03-31T20:07:32.598Z,1.15
2023-03-31T20:08:38.439Z,1.45
2023-03-31T20:09:40.248Z,1.10
2023-03-31T20:10:45.451Z,1.23
2023-03-31T20:11:52.197Z,1.50
2023-03-31T20:12:59.184Z,1.00
2023-03-31T20:14:05.460Z,0.70
2023-03-31T20:15:08.920Z,0.90
2023-03-31T20:16:15.970Z,0.80
2023-03-31T20:17:19.697Z,1.08
2023-03-31T20:18:24.409Z,0.63
2023-03-31T20:19:30.552Z,1.20
2023-03-31T20:20:32.121Z,0.93
2023-03-31T20:21:39.664Z,0.63
2023-03-31T20:22:47.289Z,0.60
2023-03-31T20:23:51.890Z,0.50
2023-03-31T20:24:55.350Z,0.40
2023-03-31T20:26:01.222Z,0.50
2023-03-31T20:27:03.277Z,0.63
2023-03-31T20:28:08.754Z,0.45
2023-03-31T20:29:12.177Z,0.25
2023-03-31T20:30:14.371Z,0.40
2023-03-31T20:31:23.854Z,0.88
2023-03-31T20:32:28.758Z,0.80
2023-03-31T20:33:32.666Z,0.77
2023-03-31T20:34:37.656Z,0.60
2023-03-31T20:35:43.893Z,0.43
2023-03-31T20:36:51.399Z,0.30
2023-03-31T20:37:58.122Z,0.50
2023-03-31T20:39:05.141Z,0.50
2023-03-31T20:40:11.429Z,0.20
2023-03-31T20:41:13.838Z,0.20
2023-03-31T20:42:16.861Z,0.50
2023-03-31T20:43:23.710Z,0.38
2023-03-31T20:44:25.384Z,0.20
2023-03-31T20:45:33.426Z,0.35
2023-03-31T20:46:37.837Z,0.40
2023-03-31T20:47:43.236Z,0.30
2023-03-31T20:48:46.749Z,0.40
2023-03-31T20:49:50.839Z,0.32
2023-03-31T20:50:53.271Z,0.28
2023-03-31T20:51:59.275Z,0.22
2023-03-31T20:53:01.233Z,0.75
2023-03-31T20:54:06.456Z,0.30
2023-03-31T20:55:11.947Z,0.60
2023-03-31T20:56:14.897Z,0.40
2023-03-31T20:57:17.342Z,0.70
2023-03-31T20:58:27.023Z,0.65
2023-03-31T20:59:28.582Z,0.80
2023-03-31T21:00:34.190Z,0.52
2023-03-31T21:01:37.877Z,0.38
2023-03-31T21:02:40.645Z,0.30
2023-03-31T21:03:43.691Z,0.80
2023-03-31T21:04:51.248Z,0.30
2023-03-31T21:05:54.219Z,0.40
2023-03-31T21:06:59.449Z,0.20
2023-03-31T21:08:01.227Z,0.40
2023-03-31T21:09:04.374Z,0.32
2023-03-31T21:10:07.195Z,0.40
2023-03-31T21:11:10.992Z,0.20
2023-03-31T21:12:14.984Z,0.25
2023-03-31T21:13:18.956Z,0.35
2023-03-31T21:14:23.340Z,0.50
2023-03-31T21:15:28.669Z,0.63
2023-03-31T21:16:32.572Z,0.30
2023-03-31T21:17:37.609Z,0.47
2023-03-31T21:18:42.441Z,0.30
2023-03-31T21:19:47.763Z,0.93
2023-03-31T21:21:11.022Z,1.30
2023-03-31T21:22:13.275Z,0.40
2023-03-31T21:23:14.896Z,0.50
2023-03-31T21:24:17.249Z,0.30
2023-03-31T21:25:21.444Z,0.60
2023-03-31T21:26:23.422Z,0.40
2023-03-31T21:27:25.248Z,0.47
2023-03-31T21:28:29.787Z,0.40
2023-03-31T21:29:32.392Z,0.40
2023-03-31T21:30:37.257Z,0.38
2023-03-31T21:31:39.864Z,0.30
2023-03-31T21:32:42.897Z,0.30
2023-03-31T21:33:46.201Z,0.40
2023-03-31T21:34:48.227Z,0.10
2023-03-31T21:35:53.001Z,0.40
2023-03-31T21:36:57.685Z,0.30
2023-03-31T21:43:01.848Z,0.40
2023-03-31T21:44:04.756Z,0.47
2023-03-31T21:45:10.515Z,0.40
2023-03-31T21:46:22.422Z,0.40
2023-03-31T21:47:28.337Z,0.50
2023-03-31T21:48:31.407Z,0.20
2023-03-31T21:49:36.086Z,0.40
2023-03-31T21:50:40.236Z,0.30